Carthage, Indiana
Current Conditions -  °F | °C
As of 9:53 AM on Saturday 22 Nov 2014 (Local Time) from KGEZ Reporting Station
Overcast Overcast  
Wind Chill: 34°   Ceiling: 5500
Heat Index: 41°   Visibility: 10mi
Dew Point: 34°   Wind: 13mph
Humidity: 76%   Direction: 190°S
Pressure: 30.2"   Gusts: NA
Location:  39.74°N, 85.57°W
Report Text: KGEZ 221453Z AUTO 19011KT 10SM OVC055 05/01 A3020 RMK AO2 RAB1357E43 SLP234 P0000 60000 T00500011 57006
Loading
Personal Weather Stations






























Interactive Weather Map New forecast layout! Learn more

10-Day Weather Forecast

Advertisements
Track Severe Weather on mobile